OCN1LT MDPC-EDDF
Flight info
| Callsign | OCN1LT |
|---|---|
| Flight time | N/A |
| Altitude | 38000 |
| Route | CHUMA2T CHUMA Y315 KEEKA/M082F380 M597 FIVZE DCT 33N050W 40N040W 44N030W 46N020W 47N015W DCT ETIKI UN480 REGHI/N0472F380 DCT FEJAC UN585 UPALO UN491 TABOV UN858 VALEK UM163 DIK T856 NIVNU T847 IMCOM IMCOM1A |
| Aircraft | A333/H-SDE3GHIJ2J3J5M1RVWXY/LB2D1 |
Departure
| Time | N/A |
|---|---|
| Airport | Punta Cana International Airport (MDPC) |
Arrival
| Time | 2026-05-05 19:23 |
|---|---|
| Airport | Frankfurt Main Airport (EDDF) |
| Time | Latitude | Longitude | Altitude | Speed | Heading |
|---|---|---|---|---|---|
| 2026-05-05 18:50 | 49.63066 | 5.96657 | 37806 ft | 491 kts | 27° |
| 2026-05-05 18:51 | 49.69250 | 6.01175 | 37805 ft | 491 kts | 24° |
| 2026-05-05 18:51 | 49.75471 | 6.05467 | 37808 ft | 491 kts | 24° |
| 2026-05-05 18:52 | 49.81704 | 6.09825 | 37814 ft | 491 kts | 25° |
| 2026-05-05 18:52 | 49.87900 | 6.14218 | 37816 ft | 490 kts | 25° |
| 2026-05-05 18:53 | 49.94147 | 6.18602 | 37823 ft | 490 kts | 25° |
| 2026-05-05 18:53 | 50.00320 | 6.23011 | 37213 ft | 489 kts | 26° |
| 2026-05-05 18:54 | 50.03398 | 6.25260 | 36731 ft | 486 kts | 26° |
| 2026-05-05 18:54 | 50.06459 | 6.27510 | 36189 ft | 484 kts | 27° |
| 2026-05-05 18:54 | 50.09491 | 6.29745 | 35652 ft | 482 kts | 27° |
| 2026-05-05 18:54 | 50.12501 | 6.31964 | 35119 ft | 481 kts | 28° |
| 2026-05-05 18:55 | 50.15525 | 6.34194 | 34595 ft | 479 kts | 28° |
| 2026-05-05 18:55 | 50.17529 | 6.35672 | 34219 ft | 478 kts | 28° |
| 2026-05-05 18:55 | 50.20540 | 6.37894 | 33654 ft | 477 kts | 28° |
| 2026-05-05 18:55 | 50.24515 | 6.40830 | 32739 ft | 475 kts | 28° |
| 2026-05-05 18:56 | 50.26511 | 6.42416 | 32166 ft | 473 kts | 33° |
| 2026-05-05 18:56 | 50.29209 | 6.45339 | 31335 ft | 470 kts | 43° |
| 2026-05-05 18:56 | 50.31473 | 6.48909 | 30553 ft | 465 kts | 54° |
| 2026-05-05 18:56 | 50.33251 | 6.53142 | 29737 ft | 461 kts | 66° |
| 2026-05-05 18:57 | 50.34402 | 6.57751 | 28804 ft | 457 kts | 77° |
| 2026-05-05 18:57 | 50.34915 | 6.62646 | 27965 ft | 452 kts | 89° |
| 2026-05-05 18:57 | 50.34859 | 6.67566 | 27199 ft | 448 kts | 95° |
| 2026-05-05 18:57 | 50.34619 | 6.72368 | 26466 ft | 445 kts | 97° |
| 2026-05-05 18:58 | 50.34292 | 6.77171 | 25751 ft | 442 kts | 98° |
| 2026-05-05 18:58 | 50.33944 | 6.81963 | 25024 ft | 439 kts | 98° |
| 2026-05-05 18:58 | 50.33351 | 6.86602 | 24036 ft | 443 kts | 109° |
| 2026-05-05 18:58 | 50.32203 | 6.91102 | 23169 ft | 444 kts | 115° |
| 2026-05-05 18:59 | 50.30895 | 6.95495 | 22403 ft | 441 kts | 116° |
| 2026-05-05 18:59 | 50.29582 | 6.99828 | 21644 ft | 438 kts | 116° |
| 2026-05-05 18:59 | 50.28288 | 7.04116 | 20923 ft | 435 kts | 116° |
| 2026-05-05 18:59 | 50.27023 | 7.08323 | 20073 ft | 429 kts | 116° |
| 2026-05-05 19:00 | 50.25749 | 7.12568 | 19033 ft | 426 kts | 116° |
| 2026-05-05 19:00 | 50.24494 | 7.16743 | 18071 ft | 423 kts | 116° |
| 2026-05-05 19:00 | 50.23254 | 7.20871 | 17106 ft | 416 kts | 116° |
| 2026-05-05 19:00 | 50.22047 | 7.24884 | 16427 ft | 404 kts | 116° |
| 2026-05-05 19:01 | 50.20869 | 7.28799 | 15894 ft | 390 kts | 116° |
| 2026-05-05 19:01 | 50.19743 | 7.32607 | 15383 ft | 379 kts | 114° |
| 2026-05-05 19:01 | 50.18795 | 7.36355 | 14906 ft | 371 kts | 112° |
| 2026-05-05 19:01 | 50.17895 | 7.40134 | 14417 ft | 372 kts | 112° |
| 2026-05-05 19:02 | 50.17004 | 7.43890 | 13912 ft | 373 kts | 112° |
| 2026-05-05 19:02 | 50.16097 | 7.47701 | 13406 ft | 373 kts | 112° |
| 2026-05-05 19:02 | 50.15202 | 7.51454 | 12852 ft | 370 kts | 112° |
| 2026-05-05 19:02 | 50.14304 | 7.55205 | 12354 ft | 366 kts | 112° |
| 2026-05-05 19:03 | 50.13412 | 7.58922 | 11864 ft | 363 kts | 112° |
| 2026-05-05 19:03 | 50.12538 | 7.62561 | 11371 ft | 361 kts | 112° |
| 2026-05-05 19:03 | 50.11650 | 7.66226 | 10966 ft | 365 kts | 114° |
| 2026-05-05 19:03 | 50.10495 | 7.69769 | 10784 ft | 363 kts | 124° |
| 2026-05-05 19:04 | 50.09124 | 7.73004 | 10572 ft | 350 kts | 127° |
| 2026-05-05 19:04 | 50.07771 | 7.76043 | 10373 ft | 337 kts | 127° |
| 2026-05-05 19:04 | 50.06460 | 7.78971 | 10195 ft | 325 kts | 127° |
| 2026-05-05 19:04 | 50.05192 | 7.81806 | 9943 ft | 313 kts | 127° |
| 2026-05-05 19:05 | 50.03973 | 7.84533 | 9654 ft | 301 kts | 127° |
| 2026-05-05 19:05 | 50.02785 | 7.87189 | 9327 ft | 296 kts | 127° |
| 2026-05-05 19:05 | 50.01615 | 7.89827 | 8975 ft | 294 kts | 126° |
| 2026-05-05 19:05 | 50.00676 | 7.92618 | 8835 ft | 295 kts | 112° |
| 2026-05-05 19:06 | 50.00223 | 7.95754 | 8831 ft | 298 kts | 95° |
| 2026-05-05 19:06 | 50.00375 | 7.98966 | 8835 ft | 300 kts | 77° |
| 2026-05-05 19:06 | 50.00997 | 8.02041 | 8839 ft | 301 kts | 70° |
| 2026-05-05 19:06 | 50.01748 | 8.05082 | 8842 ft | 301 kts | 69° |
| 2026-05-05 19:07 | 50.02504 | 8.08092 | 8844 ft | 301 kts | 69° |
| 2026-05-05 19:07 | 50.03261 | 8.11133 | 8844 ft | 301 kts | 69° |
| 2026-05-05 19:07 | 50.04014 | 8.14186 | 8846 ft | 301 kts | 69° |
| 2026-05-05 19:07 | 50.04763 | 8.17246 | 8848 ft | 301 kts | 69° |
| 2026-05-05 19:08 | 50.05498 | 8.20261 | 8851 ft | 301 kts | 69° |
| 2026-05-05 19:08 | 50.06241 | 8.23319 | 8851 ft | 301 kts | 70° |
| 2026-05-05 19:08 | 50.06984 | 8.26380 | 8850 ft | 301 kts | 70° |
| 2026-05-05 19:08 | 50.07725 | 8.29443 | 8850 ft | 302 kts | 70° |
| 2026-05-05 19:09 | 50.08457 | 8.32472 | 8852 ft | 302 kts | 70° |
| 2026-05-05 19:09 | 50.09198 | 8.35542 | 8850 ft | 302 kts | 70° |
| 2026-05-05 19:09 | 50.09933 | 8.38595 | 8851 ft | 302 kts | 70° |
| 2026-05-05 19:09 | 50.10671 | 8.41665 | 8849 ft | 302 kts | 70° |
| 2026-05-05 19:10 | 50.11406 | 8.44732 | 8809 ft | 302 kts | 70° |
| 2026-05-05 19:10 | 50.12132 | 8.47760 | 8802 ft | 300 kts | 70° |
| 2026-05-05 19:10 | 50.12866 | 8.50827 | 8503 ft | 301 kts | 70° |
| 2026-05-05 19:10 | 50.13596 | 8.53880 | 8166 ft | 298 kts | 71° |
| 2026-05-05 19:11 | 50.14315 | 8.56892 | 7826 ft | 295 kts | 70° |
| 2026-05-05 19:11 | 50.15022 | 8.59860 | 7503 ft | 293 kts | 71° |
| 2026-05-05 19:11 | 50.15737 | 8.62861 | 7152 ft | 292 kts | 70° |
| 2026-05-05 19:11 | 50.16432 | 8.65785 | 6870 ft | 290 kts | 71° |
| 2026-05-05 19:12 | 50.17134 | 8.68743 | 6795 ft | 289 kts | 71° |
| 2026-05-05 19:12 | 50.17834 | 8.71694 | 6801 ft | 290 kts | 71° |
| 2026-05-05 19:12 | 50.18532 | 8.74643 | 6817 ft | 290 kts | 71° |
| 2026-05-05 19:12 | 50.19222 | 8.77562 | 6805 ft | 289 kts | 71° |
| 2026-05-05 19:13 | 50.19923 | 8.80532 | 6789 ft | 290 kts | 71° |
| 2026-05-05 19:13 | 50.20615 | 8.83467 | 6444 ft | 291 kts | 71° |
| 2026-05-05 19:13 | 50.21315 | 8.86438 | 6132 ft | 288 kts | 71° |
| 2026-05-05 19:13 | 50.22004 | 8.89371 | 6013 ft | 286 kts | 71° |
| 2026-05-05 19:14 | 50.22680 | 8.92253 | 6006 ft | 286 kts | 71° |
| 2026-05-05 19:14 | 50.23368 | 8.95191 | 6007 ft | 286 kts | 71° |
| 2026-05-05 19:14 | 50.24054 | 8.98124 | 6008 ft | 286 kts | 71° |
| 2026-05-05 19:14 | 50.24538 | 9.01088 | 6006 ft | 284 kts | 89° |
| 2026-05-05 19:15 | 50.24205 | 9.04080 | 6005 ft | 278 kts | 117° |
| 2026-05-05 19:15 | 50.23071 | 9.06454 | 6008 ft | 272 kts | 144° |
| 2026-05-05 19:15 | 50.21409 | 9.07717 | 6009 ft | 265 kts | 171° |
| 2026-05-05 19:15 | 50.19604 | 9.07616 | 6005 ft | 257 kts | 199° |
| 2026-05-05 19:16 | 50.18111 | 9.06312 | 6002 ft | 241 kts | 221° |
| 2026-05-05 19:16 | 50.16993 | 9.04403 | 6004 ft | 237 kts | 235° |
| 2026-05-05 19:16 | 50.16215 | 9.02162 | 6005 ft | 238 kts | 246° |
| 2026-05-05 19:16 | 50.15615 | 8.99740 | 6005 ft | 239 kts | 249° |
| 2026-05-05 19:17 | 50.15042 | 8.97300 | 6005 ft | 239 kts | 249° |
| 2026-05-05 19:17 | 50.14475 | 8.94870 | 6003 ft | 237 kts | 249° |
| 2026-05-05 19:17 | 50.13934 | 8.92545 | 5986 ft | 224 kts | 249° |
| 2026-05-05 19:17 | 50.13403 | 8.90293 | 5798 ft | 218 kts | 248° |
| 2026-05-05 19:18 | 50.12876 | 8.88102 | 5502 ft | 213 kts | 249° |
| 2026-05-05 19:18 | 50.12364 | 8.85960 | 5165 ft | 207 kts | 249° |
| 2026-05-05 19:18 | 50.11875 | 8.83905 | 4791 ft | 201 kts | 249° |
| 2026-05-05 19:18 | 50.11395 | 8.81895 | 4461 ft | 195 kts | 249° |
| 2026-05-05 19:19 | 50.10933 | 8.79957 | 4145 ft | 185 kts | 249° |
| 2026-05-05 19:19 | 50.10495 | 8.78122 | 3884 ft | 182 kts | 249° |
| 2026-05-05 19:19 | 50.10053 | 8.76273 | 3643 ft | 181 kts | 249° |
| 2026-05-05 19:19 | 50.09614 | 8.74432 | 3395 ft | 180 kts | 249° |
| 2026-05-05 19:20 | 50.09183 | 8.72624 | 3136 ft | 180 kts | 249° |
| 2026-05-05 19:20 | 50.08746 | 8.70797 | 2873 ft | 179 kts | 249° |
| 2026-05-05 19:20 | 50.08310 | 8.68968 | 2609 ft | 179 kts | 249° |
| 2026-05-05 19:20 | 50.07877 | 8.67158 | 2359 ft | 179 kts | 250° |
| 2026-05-05 19:21 | 50.07459 | 8.65406 | 2103 ft | 169 kts | 249° |
| 2026-05-05 19:21 | 50.07063 | 8.63746 | 1875 ft | 156 kts | 249° |
| 2026-05-05 19:21 | 50.06699 | 8.62219 | 1643 ft | 145 kts | 249° |
| 2026-05-05 19:21 | 50.06363 | 8.60794 | 1392 ft | 143 kts | 249° |
| 2026-05-05 19:22 | 50.06010 | 8.59311 | 1191 ft | 147 kts | 249° |
| 2026-05-05 19:22 | 50.05648 | 8.57803 | 984 ft | 149 kts | 249° |
| 2026-05-05 19:22 | 50.05285 | 8.56306 | 756 ft | 150 kts | 249° |
| 2026-05-05 19:22 | 50.04925 | 8.54805 | 570 ft | 145 kts | 249° |
| 2026-05-05 19:23 | 50.04577 | 8.53350 | 388 ft | 141 kts | 249° |
| 2026-05-05 19:23 | 50.04268 | 8.52066 | 350 ft | 104 kts | 250° |
| 2026-05-05 19:23 | 50.04081 | 8.51289 | 328 ft | 55 kts | 248° |
| 2026-05-05 19:23 | 50.03902 | 8.50913 | 326 ft | 35 kts | 221° |
| 2026-05-05 19:24 | 50.03821 | 8.50842 | 325 ft | 0 kts | 181° |
| 2026-05-05 19:26 | 50.03797 | 8.50851 | 326 ft | 13 kts | 160° |
| 2026-05-05 19:27 | 50.03789 | 8.50963 | 328 ft | 12 kts | 66° |
| 2026-05-05 19:27 | 50.03831 | 8.51136 | 328 ft | 19 kts | 70° |
| 2026-05-05 19:27 | 50.03878 | 8.51331 | 331 ft | 19 kts | 70° |
| 2026-05-05 19:27 | 50.03925 | 8.51529 | 331 ft | 20 kts | 69° |
| 2026-05-05 19:28 | 50.03974 | 8.51727 | 346 ft | 20 kts | 70° |
| 2026-05-05 19:28 | 50.04021 | 8.51926 | 347 ft | 20 kts | 69° |
| 2026-05-05 19:28 | 50.04069 | 8.52128 | 353 ft | 20 kts | 69° |
| 2026-05-05 19:28 | 50.04119 | 8.52334 | 351 ft | 20 kts | 70° |
| 2026-05-05 19:29 | 50.04169 | 8.52545 | 356 ft | 21 kts | 70° |
| 2026-05-05 19:29 | 50.04218 | 8.52752 | 357 ft | 21 kts | 70° |
| 2026-05-05 19:29 | 50.04269 | 8.52965 | 357 ft | 20 kts | 70° |
| 2026-05-05 19:29 | 50.04316 | 8.53164 | 365 ft | 19 kts | 72° |
| 2026-05-05 19:30 | 50.04360 | 8.53347 | 368 ft | 18 kts | 69° |
| 2026-05-05 19:30 | 50.04396 | 8.53533 | 366 ft | 18 kts | 83° |
| 2026-05-05 19:30 | 50.04409 | 8.53734 | 368 ft | 19 kts | 84° |
| 2026-05-05 19:30 | 50.04424 | 8.53947 | 361 ft | 21 kts | 84° |
| 2026-05-05 19:31 | 50.04439 | 8.54175 | 365 ft | 22 kts | 84° |
| 2026-05-05 19:31 | 50.04453 | 8.54414 | 362 ft | 23 kts | 88° |
| 2026-05-05 19:31 | 50.04408 | 8.54652 | 366 ft | 23 kts | 123° |
| 2026-05-05 19:31 | 50.04274 | 8.54796 | 366 ft | 24 kts | 159° |
| 2026-05-05 19:32 | 50.04132 | 8.54874 | 367 ft | 16 kts | 160° |
| 2026-05-05 19:32 | 50.04088 | 8.54899 | 363 ft | 0 kts | 161° |
| 2026-05-05 19:39 | 50.04013 | 8.54942 | 369 ft | 19 kts | 159° |
| 2026-05-05 19:39 | 50.03889 | 8.55016 | 368 ft | 12 kts | 160° |
| 2026-05-05 19:39 | 50.03847 | 8.55074 | 364 ft | 14 kts | 109° |
| 2026-05-05 19:40 | 50.03876 | 8.55230 | 365 ft | 16 kts | 68° |
| 2026-05-05 19:40 | 50.03933 | 8.55465 | 369 ft | 18 kts | 69° |
| 2026-05-05 19:40 | 50.03979 | 8.55660 | 366 ft | 20 kts | 69° |
| 2026-05-05 19:40 | 50.04012 | 8.55796 | 368 ft | 21 kts | 69° |
| 2026-05-05 19:41 | 50.04064 | 8.56014 | 363 ft | 22 kts | 69° |
| 2026-05-05 19:41 | 50.04117 | 8.56238 | 368 ft | 23 kts | 70° |
| 2026-05-05 19:41 | 50.04175 | 8.56476 | 368 ft | 24 kts | 69° |
| 2026-05-05 19:41 | 50.04233 | 8.56723 | 363 ft | 25 kts | 70° |
| 2026-05-05 19:42 | 50.04293 | 8.56974 | 371 ft | 25 kts | 70° |
| 2026-05-05 19:42 | 50.04354 | 8.57226 | 366 ft | 23 kts | 69° |
| 2026-05-05 19:42 | 50.04410 | 8.57458 | 368 ft | 23 kts | 70° |
| 2026-05-05 19:42 | 50.04465 | 8.57692 | 369 ft | 24 kts | 69° |
| 2026-05-05 19:43 | 50.04513 | 8.57896 | 371 ft | 15 kts | 71° |
| 2026-05-05 19:43 | 50.04571 | 8.58023 | 368 ft | 14 kts | 15° |
| 2026-05-05 19:43 | 50.04663 | 8.57987 | 369 ft | 14 kts | 341° |
| 2026-05-05 19:43 | 50.04761 | 8.57934 | 368 ft | 16 kts | 338° |
| 2026-05-05 19:44 | 50.04849 | 8.57832 | 366 ft | 17 kts | 303° |
| 2026-05-05 19:44 | 50.04883 | 8.57706 | 370 ft | 9 kts | 293° |
| 2026-05-05 19:44 | 50.04928 | 8.57656 | 370 ft | 6 kts | 2° |
| 2026-05-05 19:44 | 50.04949 | 8.57667 | 369 ft | 2 kts | 21° |
| 2026-05-05 19:45 | 50.04962 | 8.57676 | 368 ft | 2 kts | 22° |
| 2026-05-05 19:45 | 50.04969 | 8.57680 | 369 ft | 1 kts | 22° |
| 2026-05-05 19:45 | 50.04971 | 8.57681 | 369 ft | 0 kts | 22° |
| 2026-05-05 19:45 | 50.04972 | 8.57682 | 369 ft | 0 kts | 22° |